Time;durP1;ratioP1;P1;durP2;ratioP2;P2;SDS_P1;SDS_P2;PMS_P1;PMS_P2;Temp;Humidity;BMP_temperature;BMP_pressure;BME280_temperature;BME280_humidity;BME280_pressure;Samples;Min_cycle;Max_cycle;Signal;HPM_P1;HPM_P2
2022/04/22 00:02:11;;;;;;;6.37;5.67;;;;;;;8.62;71.20;95520.31;5035487;28;20189;-67
2022/04/22 00:04:37;;;;;;;6.10;5.50;;;;;;;8.43;72.26;95531.28;5035512;28;20715;-68
2022/04/22 00:07:02;;;;;;;7.40;5.67;;;;;;;8.39;72.28;95528.41;5035545;28;20187;-68
2022/04/22 00:09:28;;;;;;;6.10;5.50;;;;;;;8.57;71.78;95522.88;5035311;28;20205;-68
2022/04/22 00:11:53;;;;;;;6.17;5.40;;;;;;;8.48;71.96;95519.09;5035643;28;20179;-68
2022/04/22 00:14:18;;;;;;;7.50;5.80;;;;;;;8.41;72.46;95531.56;5035548;28;20517;-68
2022/04/22 00:16:44;;;;;;;6.13;5.53;;;;;;;8.46;72.44;95528.22;5035824;28;20659;-69
2022/04/22 00:19:09;;;;;;;6.37;5.57;;;;;;;8.35;72.99;95522.09;5035075;28;20190;-67
2022/04/22 00:21:35;;;;;;;6.93;5.20;;;;;;;8.45;72.71;95522.19;5035552;28;20186;-67
2022/04/22 00:24:00;;;;;;;5.97;5.37;;;;;;;8.41;73.18;95528.16;5034805;28;20278;-68
2022/04/22 00:26:25;;;;;;;5.93;5.23;;;;;;;8.47;72.82;95512.28;5035242;28;20190;-68
2022/04/22 00:28:51;;;;;;;8.00;5.60;;;;;;;8.48;72.52;95523.53;5017554;28;20179;-68
2022/04/22 00:31:17;;;;;;;5.70;5.13;;;;;;;8.28;73.21;95521.44;5034479;28;20275;-67
2022/04/22 00:33:42;;;;;;;8.97;5.43;;;;;;;8.37;73.20;95517.41;5035055;28;20665;-68
2022/04/22 00:36:08;;;;;;;6.17;5.63;;;;;;;8.43;73.33;95505.97;5035295;28;20675;-68
2022/04/22 00:38:34;;;;;;;5.93;5.33;;;;;;;8.42;73.26;95514.84;5017280;28;20187;-67
2022/04/22 00:40:59;;;;;;;9.30;5.43;;;;;;;8.33;73.57;95518.91;5034625;28;20206;-67
2022/04/22 00:43:26;;;;;;;6.63;6.00;;;;;;;8.39;73.64;95506.72;5034866;28;20183;-67
2022/04/22 00:45:53;;;;;;;10.63;5.70;;;;;;;8.28;73.96;95503.97;5035142;28;20193;-67
2022/04/22 00:48:20;;;;;;;7.93;5.90;;;;;;;8.18;74.64;95503.84;5017321;28;20228;-68
2022/04/22 00:50:45;;;;;;;7.07;6.23;;;;;;;8.19;74.90;95502.03;5034939;28;20281;-68
2022/04/22 00:53:12;;;;;;;8.03;6.40;;;;;;;8.14;75.22;95497.50;5034287;28;20210;-68
2022/04/22 00:55:41;;;;;;;7.50;6.10;;;;;;;8.08;75.56;95497.72;5034695;28;20221;-67
2022/04/22 00:58:06;;;;;;;6.90;6.20;;;;;;;8.08;75.52;95498.47;5034131;28;20660;-67
2022/04/22 01:00:32;;;;;;;7.13;5.57;;;;;;;7.89;76.25;95484.16;5034944;28;20194;-67
2022/04/22 01:02:58;;;;;;;8.00;6.77;;;;;;;7.84;76.87;95487.50;5034468;28;20229;-67
2022/04/22 01:10:54;;;;;;;7.80;6.97;;;;;;;7.81;77.39;95485.34;5034689;28;20294;-67
2022/04/22 01:13:20;;;;;;;8.73;7.30;;;;;;;7.94;77.19;95484.22;5034658;28;20186;-67
2022/04/22 01:15:46;;;;;;;9.13;6.77;;;;;;;7.77;77.52;95481.66;5034458;28;20198;-69
2022/04/22 01:18:13;;;;;;;8.37;6.60;;;;;;;7.77;77.78;95476.44;5033707;28;20190;-68
2022/04/22 01:20:39;;;;;;;8.57;6.93;;;;;;;7.67;78.47;95478.91;5034699;28;20303;-66
2022/04/22 01:23:04;;;;;;;9.03;7.07;;;;;;;7.63;79.17;95462.19;5034195;28;20269;-68
2022/04/22 01:25:30;;;;;;;9.40;7.20;;;;;;;7.67;78.84;95463.28;5034548;28;20719;-67
2022/04/22 01:27:55;;;;;;;7.40;6.70;;;;;;;7.48;79.71;95448.91;5034043;28;20217;-68
2022/04/22 01:30:22;;;;;;;8.87;7.03;;;;;;;7.43;80.52;95462.69;5016215;28;20555;-69
2022/04/22 01:32:53;;;;;;;10.67;7.40;;;;;;;7.55;80.00;95452.16;5034060;28;20183;-67
2022/04/22 01:35:19;;;;;;;8.90;7.67;;;;;;;7.40;80.60;95444.13;5034182;28;20187;-68
2022/04/22 01:37:45;;;;;;;10.10;7.70;;;;;;;7.37;81.03;95447.19;5033663;28;20545;-67
2022/04/22 01:40:11;;;;;;;10.00;7.50;;;;;;;7.33;81.73;95452.09;5033332;28;20195;-68
2022/04/22 01:42:37;;;;;;;11.23;7.47;;;;;;;7.44;81.07;95446.00;5033300;28;20191;-68
2022/04/22 01:45:04;;;;;;;9.73;7.33;;;;;;;7.36;81.43;95438.59;5033779;28;20190;-66
2022/04/22 01:47:30;;;;;;;10.00;8.00;;;;;;;7.26;82.07;95433.22;5034184;28;20269;-67
2022/04/22 01:49:55;;;;;;;10.93;8.53;;;;;;;7.43;81.55;95434.00;5033855;28;20729;-67
2022/04/22 01:52:22;;;;;;;10.73;8.57;;;;;;;7.35;82.08;95420.59;5033356;28;20240;-68
2022/04/22 01:54:51;;;;;;;11.07;8.27;;;;;;;7.20;82.99;95422.97;5033550;28;20261;-67
2022/04/22 01:57:16;;;;;;;12.63;8.90;;;;;;;7.14;83.48;95414.28;5033482;28;20277;-68
2022/04/22 01:59:44;;;;;;;13.03;9.50;;;;;;;7.09;83.83;95417.63;5033655;28;20198;-68
2022/04/22 02:02:18;;;;;;;14.87;9.80;;;;;;;7.13;83.88;95417.94;5033371;28;20737;-67
2022/04/22 02:04:45;;;;;;;11.00;9.17;;;;;;;7.11;84.14;95417.38;5033625;28;20742;-66
2022/04/22 02:07:10;;;;;;;11.43;9.37;;;;;;;7.13;84.27;95404.91;5033535;28;20676;-67
2022/04/22 02:09:36;;;;;;;11.67;10.13;;;;;;;7.10;84.60;95406.16;5032391;28;20410;-67
2022/04/22 02:12:03;;;;;;;11.63;10.03;;;;;;;7.22;83.97;95406.09;5031867;28;20465;-67
2022/04/22 02:14:29;;;;;;;12.77;10.57;;;;;;;7.08;84.73;95407.44;5032456;28;20873;-68
2022/04/22 02:16:55;;;;;;;12.07;10.32;;;;;;;7.16;84.50;95407.03;5032234;28;21007;-66
2022/04/22 02:19:20;;;;;;;11.80;10.30;;;;;;;7.27;84.23;95408.75;5031486;28;20478;-67
2022/04/22 02:21:46;;;;;;;11.23;9.97;;;;;;;7.22;84.24;95407.91;5032448;28;20858;-67
2022/04/22 02:24:11;;;;;;;11.88;10.10;;;;;;;7.15;85.03;95402.84;5014354;28;20912;-67
2022/04/22 02:29:22;;;;;;;12.25;10.95;;;;;;;7.14;84.81;95396.06;5031957;28;20465;-68
2022/04/22 02:31:48;;;;;;;11.67;10.30;;;;;;;7.14;84.59;95390.84;5031807;28;20407;-67
2022/04/22 02:34:14;;;;;;;11.85;10.65;;;;;;;7.11;85.35;95383.50;5032009;28;20402;-67
2022/04/22 02:36:41;;;;;;;13.13;10.70;;;;;;;7.14;85.31;95385.63;5031881;28;20434;-68
2022/04/22 02:39:07;;;;;;;11.75;10.50;;;;;;;7.25;84.80;95389.16;4994593;28;20954;-68
2022/04/22 02:47:00;;;;;;;13.52;11.23;;;;;;;7.01;86.09;95384.16;5031917;28;20503;-67
2022/04/22 02:49:25;;;;;;;13.70;11.70;;;;;;;7.09;85.91;95377.75;5014320;28;20958;-67
2022/04/22 02:51:51;;;;;;;14.53;11.60;;;;;;;7.08;85.80;95378.75;5031378;28;20966;-68
2022/04/22 02:54:17;;;;;;;13.70;11.87;;;;;;;6.91;87.23;95365.00;5031245;28;20403;-67
2022/04/22 02:56:42;;;;;;;13.35;11.77;;;;;;;6.82;87.75;95376.81;5031161;28;20761;-68
2022/04/22 02:59:08;;;;;;;13.27;11.23;;;;;;;6.96;86.70;95371.06;5014089;28;20762;-66
2022/04/22 03:01:34;;;;;;;13.57;11.68;;;;;;;7.04;86.61;95370.66;5014083;28;20422;-68
2022/04/22 03:03:59;;;;;;;13.63;11.53;;;;;;;7.01;86.63;95370.34;5031073;28;20421;-68
2022/04/22 03:06:26;;;;;;;13.77;11.33;;;;;;;7.08;86.38;95371.75;5031707;28;20777;-67
2022/04/22 03:08:52;;;;;;;14.18;11.30;;;;;;;7.05;86.43;95369.63;5031387;28;20761;-68
2022/04/22 03:11:21;;;;;;;13.10;11.65;;;;;;;7.00;86.68;95366.94;5031867;28;20418;-66
2022/04/22 03:13:49;;;;;;;12.63;10.37;;;;;;;7.01;86.82;95375.56;5032474;28;20183;-66
2022/04/22 03:16:16;;;;;;;17.07;12.37;;;;;;;6.92;87.17;95366.56;5032793;28;20245;-68
2022/04/22 03:18:41;;;;;;;15.20;11.33;;;;;;;6.98;87.05;95371.59;5032789;28;20339;-66
2022/04/22 03:21:07;;;;;;;15.93;12.63;;;;;;;6.92;87.21;95371.75;5032922;28;20223;-67
2022/04/22 03:23:33;;;;;;;14.33;11.87;;;;;;;6.78;88.00;95352.28;5032375;28;20205;-67
2022/04/22 03:25:58;;;;;;;16.00;12.37;;;;;;;6.73;88.79;95362.63;5032489;28;20187;-68
2022/04/22 03:28:24;;;;;;;16.63;12.80;;;;;;;6.74;88.72;95359.00;5032611;28;20315;-67
2022/04/22 03:30:50;;;;;;;15.73;13.27;;;;;;;6.81;88.87;95357.81;5032612;28;20217;-67
2022/04/22 03:33:17;;;;;;;16.70;12.53;;;;;;;6.67;88.98;95353.97;5032320;28;20237;-66
2022/04/22 03:35:43;;;;;;;18.07;13.37;;;;;;;6.60;89.35;95356.72;5032738;28;20190;-67
2022/04/22 03:38:11;;;;;;;15.67;13.07;;;;;;;6.59;89.68;95360.34;5032116;28;20178;-67
2022/04/22 03:40:36;;;;;;;17.17;13.17;;;;;;;6.64;89.70;95365.63;5032003;28;20183;-68
2022/04/22 03:43:02;;;;;;;16.40;13.83;;;;;;;6.50;90.29;95355.75;5032413;28;20189;-68
2022/04/22 03:45:28;;;;;;;20.17;14.33;;;;;;;6.44;90.25;95352.28;5032560;28;20186;-67
2022/04/22 03:47:58;;;;;;;18.33;15.17;;;;;;;6.30;92.00;95350.22;5014812;28;20549;-67
2022/04/22 03:50:25;;;;;;;18.73;14.53;;;;;;;6.35;91.89;95348.50;5015222;28;20213;-68
2022/04/22 03:52:51;;;;;;;19.97;14.70;;;;;;;6.26;92.44;95342.88;5032378;28;20262;-67
2022/04/22 03:55:16;;;;;;;19.23;15.67;;;;;;;6.13;93.02;95350.97;5014229;28;20321;-68
2022/04/22 04:00:26;;;;;;;21.20;16.27;;;;;;;6.03;94.48;95348.19;5031989;28;20448;-67
2022/04/22 04:02:51;;;;;;;20.80;15.93;;;;;;;6.03;94.85;95342.19;5032321;28;20332;-67
2022/04/22 04:05:16;;;;;;;21.87;17.30;;;;;;;6.06;94.97;95346.94;5033424;28;20254;-67
2022/04/22 04:07:42;;;;;;;22.33;17.60;;;;;;;6.04;94.83;95349.00;5036052;28;20309;-68
2022/04/22 04:18:19;;;;;;;23.87;18.40;;;;;;;6.04;96.00;95347.19;5035357;28;20194;-68
2022/04/22 04:23:29;;;;;;;25.17;18.40;;;;;;;6.06;96.11;95342.53;5035457;28;20178;-67
2022/04/22 04:25:54;;;;;;;22.70;19.33;;;;;;;6.06;96.41;95352.16;5016867;28;20757;-68
2022/04/22 04:28:20;;;;;;;23.90;19.80;;;;;;;6.26;95.92;95350.69;5034015;28;20402;-68
2022/04/22 04:30:46;;;;;;;23.10;20.47;;;;;;;6.44;94.59;95356.69;5033924;28;20486;-67
2022/04/22 04:33:11;;;;;;;24.95;20.88;;;;;;;6.36;94.38;95355.25;5033885;28;20410;-67
2022/04/22 04:35:40;;;;;;;23.03;19.50;;;;;;;6.30;94.88;95356.19;5034339;28;20395;-68
2022/04/22 04:38:07;;;;;;;24.60;18.17;;;;;;;6.45;94.21;95353.88;5033720;28;20430;-67
2022/04/22 04:40:33;;;;;;;21.80;17.95;;;;;;;6.62;93.04;95353.88;5033479;28;20387;-67
2022/04/22 04:43:00;;;;;;;21.38;17.08;;;;;;;6.72;92.49;95355.84;5033676;28;20399;-67
2022/04/22 04:45:27;;;;;;;21.58;17.58;;;;;;;6.49;93.47;95360.19;5033846;28;20395;-67
2022/04/22 04:47:53;;;;;;;20.65;17.40;;;;;;;6.50;93.63;95359.16;5033771;28;20391;-67
2022/04/22 04:50:18;;;;;;;21.23;16.90;;;;;;;6.73;92.71;95358.22;5032920;28;20776;-67
2022/04/22 04:52:44;;;;;;;21.52;16.77;;;;;;;6.77;92.13;95354.09;5033976;28;20493;-67
2022/04/22 04:55:11;;;;;;;18.93;16.27;;;;;;;6.75;92.29;95363.97;5033534;28;20398;-67
2022/04/22 04:57:37;;;;;;;25.08;16.80;;;;;;;7.05;90.41;95361.03;5032946;28;20474;-67
2022/04/22 05:00:05;;;;;;;19.92;16.45;;;;;;;6.91;90.85;95357.19;5033528;28;20833;-67
2022/04/22 05:02:32;;;;;;;19.23;15.85;;;;;;;7.11;90.18;95357.47;5033562;28;20428;-68
2022/04/22 05:04:57;;;;;;;18.83;16.33;;;;;;;7.26;89.38;95360.28;5033343;28;20465;-69
2022/04/22 05:07:23;;;;;;;17.13;15.18;;;;;;;7.47;88.14;95353.50;5032990;28;20854;-68
2022/04/22 05:09:48;;;;;;;18.73;15.03;;;;;;;7.60;87.43;95349.75;5033203;28;20407;-67
2022/04/22 05:12:13;;;;;;;19.20;15.57;;;;;;;7.59;87.02;95353.38;5033598;28;20395;-67
2022/04/22 05:14:39;;;;;;;18.73;15.70;;;;;;;7.79;86.02;95345.81;5033082;28;20391;-67
2022/04/22 05:17:04;;;;;;;18.37;15.10;;;;;;;7.63;86.35;95342.25;5033845;28;20554;-67
2022/04/22 05:19:30;;;;;;;20.00;14.70;;;;;;;7.58;87.09;95344.75;5034063;28;20233;-68
2022/04/22 05:21:55;;;;;;;18.57;14.53;;;;;;;7.47;87.31;95340.47;5034390;28;20682;-67
2022/04/22 05:24:21;;;;;;;20.10;14.97;;;;;;;7.74;86.24;95343.94;5016625;28;20183;-67
2022/04/22 05:26:47;;;;;;;17.77;13.83;;;;;;;7.74;86.29;95343.94;5034303;28;20190;-67
2022/04/22 05:34:41;;;;;;;19.83;14.60;;;;;;;7.78;85.81;95339.00;5033884;28;20612;-67
2022/04/22 05:37:07;;;;;;;23.37;16.33;;;;;;;7.61;86.51;95346.91;5033608;28;20652;-67
2022/04/22 05:39:33;;;;;;;23.80;15.77;;;;;;;7.56;86.98;95348.66;5033676;28;20649;-66
2022/04/22 05:42:01;;;;;;;24.20;15.07;;;;;;;7.53;87.16;95344.69;5033658;28;20274;-66
2022/04/22 05:44:28;;;;;;;21.00;15.60;;;;;;;7.63;86.21;95352.66;5033214;28;20194;-67
2022/04/22 05:46:53;;;;;;;21.27;15.03;;;;;;;7.86;85.66;95341.97;5033492;28;20591;-67
2022/04/22 05:49:18;;;;;;;22.83;15.87;;;;;;;8.08;84.31;95346.38;5033294;28;20206;-66
2022/04/22 05:51:44;;;;;;;20.93;15.70;;;;;;;8.24;82.60;95356.72;5034066;28;20193;-66
2022/04/22 05:54:09;;;;;;;23.27;15.93;;;;;;;8.14;83.70;95345.38;5033101;28;20190;-67
2022/04/22 05:56:35;;;;;;;19.57;15.13;;;;;;;8.03;84.23;95341.06;5033650;28;20190;-67
2022/04/22 05:59:02;;;;;;;20.83;15.13;;;;;;;8.19;83.55;95342.84;5033021;28;20269;-68
2022/04/22 06:01:27;;;;;;;20.13;14.77;;;;;;;8.56;81.84;95348.13;5033670;28;20179;-66
2022/04/22 06:03:52;;;;;;;22.40;14.90;;;;;;;8.56;81.34;95348.13;5032861;28;20264;-67
2022/04/22 06:06:18;;;;;;;18.43;15.10;;;;;;;8.37;82.18;95346.91;5033168;28;20193;-67
2022/04/22 06:11:27;;;;;;;19.50;14.30;;;;;;;8.34;82.45;95338.56;5026290;28;20224;-67
2022/04/22 06:13:52;;;;;;;24.10;15.10;;;;;;;8.67;81.22;95336.75;5015012;28;20203;-67
2022/04/22 06:16:18;;;;;;;19.53;15.77;;;;;;;8.78;79.92;95333.16;5032855;28;20193;-67
2022/04/22 06:18:43;;;;;;;19.67;15.20;;;;;;;8.75;79.78;95338.88;5031704;28;20179;-67
2022/04/22 06:21:08;;;;;;;22.80;15.90;;;;;;;8.42;80.84;95339.13;5032873;28;20263;-68
2022/04/22 06:23:34;;;;;;;24.70;15.77;;;;;;;8.50;81.02;95334.25;5033308;28;20186;-68
2022/04/22 06:26:00;;;;;;;21.63;16.33;;;;;;;8.91;79.57;95327.50;5032561;28;20228;-68
2022/04/22 06:28:25;;;;;;;20.27;15.67;;;;;;;9.04;78.93;95339.34;5032572;28;20240;-67
2022/04/22 06:30:51;;;;;;;23.27;15.33;;;;;;;9.03;79.08;95329.91;5032702;28;20210;-67
2022/04/22 06:33:18;;;;;;;19.97;15.37;;;;;;;9.17;77.68;95339.69;5032448;28;20199;-68
2022/04/22 06:35:44;;;;;;;22.00;15.97;;;;;;;8.99;78.64;95336.69;5032655;28;20548;-68
2022/04/22 06:38:18;;;;;;;20.37;15.57;;;;;;;9.03;78.41;95330.72;5032802;28;20190;-70
2022/04/22 06:46:12;;;;;;;21.07;16.33;;;;;;;8.91;78.43;95324.13;5032194;28;20229;-68
2022/04/22 06:48:38;;;;;;;19.20;16.13;;;;;;;8.83;79.28;95322.75;5031919;28;20183;-68
2022/04/22 06:51:07;;;;;;;22.47;15.97;;;;;;;9.33;77.46;95322.25;5032102;28;20624;-73
2022/04/22 06:53:34;;;;;;;21.77;15.43;;;;;;;9.28;76.72;95318.81;5032094;28;20205;-75
2022/04/22 06:56:02;;;;;;;19.10;15.90;;;;;;;8.67;80.75;95316.63;5032425;28;20191;-74
2022/04/22 06:58:31;;;;;;;18.80;14.53;;;;;;;8.99;79.68;95326.25;5029977;28;20186;-66
2022/04/22 07:00:56;;;;;;;21.30;16.03;;;;;;;9.16;77.72;95311.97;5031640;28;20178;-75
2022/04/22 07:03:22;;;;;;;20.73;15.43;;;;;;;9.09;78.47;95324.47;5029104;28;20230;-75
2022/04/22 07:05:49;;;;;;;21.13;16.03;;;;;;;9.11;78.39;95324.22;5013476;28;20191;-73
2022/04/22 07:08:17;;;;;;;21.20;16.87;;;;;;;8.99;78.49;95321.81;5032101;28;20217;-74
2022/04/22 07:10:47;;;;;;;24.27;16.93;;;;;;;9.11;78.44;95317.19;5030607;28;20237;-73
2022/04/22 07:13:16;;;;;;;21.37;16.07;;;;;;;9.44;76.98;95308.19;5032063;28;20174;-75
2022/04/22 07:15:45;;;;;;;24.57;16.60;;;;;;;9.62;76.43;95308.78;5014769;28;20265;-78
2022/04/22 07:18:11;;;;;;;20.87;16.13;;;;;;;9.55;75.85;95311.63;5032418;28;20178;-76
2022/04/22 07:20:37;;;;;;;24.57;15.67;;;;;;;9.57;76.23;95312.16;5032279;28;20325;-77
2022/04/22 07:23:03;;;;;;;19.27;15.60;;;;;;;9.98;74.77;95313.06;5032047;28;20495;-72
2022/04/22 07:25:29;;;;;;;19.17;14.80;;;;;;;10.00;73.59;95311.75;5032018;28;20265;-76
2022/04/22 07:27:56;;;;;;;20.97;15.80;;;;;;;9.86;74.58;95312.53;5021959;28;20313;-75
2022/04/22 07:30:22;;;;;;;21.10;16.17;;;;;;;9.81;74.37;95309.88;5031494;28;20241;-75
2022/04/22 07:32:49;;;;;;;21.27;16.10;;;;;;;10.12;72.93;95314.16;5032317;28;20281;-76
2022/04/22 07:35:19;;;;;;;20.20;15.90;;;;;;;9.97;72.98;95311.50;5023766;28;20210;-77
2022/04/22 07:37:46;;;;;;;20.80;15.57;;;;;;;10.00;74.19;95316.22;5031954;28;20626;-76
2022/04/22 07:40:14;;;;;;;20.13;15.90;;;;;;;10.08;73.75;95313.09;5032960;28;20233;-76
2022/04/22 07:48:19;;;;;;;21.10;15.50;;;;;;;10.16;73.25;95314.41;5028415;28;20214;-76
2022/04/22 07:50:47;;;;;;;23.77;16.27;;;;;;;10.34;72.27;95312.09;5035662;28;20221;-77
2022/04/22 07:53:13;;;;;;;24.40;16.50;;;;;;;10.28;72.59;95314.97;5034806;28;20179;-76
2022/04/22 07:55:39;;;;;;;23.63;16.77;;;;;;;10.40;71.80;95307.66;5035983;28;20312;-76
2022/04/22 07:58:05;;;;;;;22.27;15.77;;;;;;;10.17;73.25;95297.69;5036122;28;20186;-76
2022/04/22 08:00:31;;;;;;;24.70;16.03;;;;;;;10.13;73.44;95302.63;5036156;28;20183;-76
2022/04/22 08:02:56;;;;;;;22.10;15.77;;;;;;;10.28;72.98;95301.88;5035945;28;20234;-77
2022/04/22 08:05:22;;;;;;;21.93;16.10;;;;;;;10.37;72.90;95303.72;5017880;28;20191;-77
2022/04/22 08:07:47;;;;;;;20.37;14.83;;;;;;;10.80;71.29;95297.19;5035229;28;20205;-76
2022/04/22 08:10:12;;;;;;;21.30;15.50;;;;;;;10.54;70.83;95297.44;5035774;28;20201;-76
2022/04/22 08:12:38;;;;;;;18.67;14.70;;;;;;;10.51;70.95;95301.38;5035750;28;20179;-77
2022/04/22 08:15:04;;;;;;;19.23;15.47;;;;;;;10.75;70.51;95293.78;5035927;28;20182;-76
2022/04/22 08:17:36;;;;;;;20.33;15.47;;;;;;;11.13;69.09;95289.78;5035234;28;20673;-76
2022/04/22 08:20:04;;;;;;;20.57;15.80;;;;;;;11.14;69.09;95283.47;5035727;28;20194;-76
2022/04/22 08:22:29;;;;;;;21.23;15.57;;;;;;;11.13;69.12;95287.94;5017895;28;20214;-76
2022/04/22 08:24:55;;;;;;;19.07;14.60;;;;;;;11.60;68.36;95286.69;5017503;28;20241;-77
2022/04/22 08:27:21;;;;;;;21.00;15.27;;;;;;;11.58;67.54;95289.63;5034958;28;20617;-76
2022/04/22 08:29:46;;;;;;;21.40;15.97;;;;;;;11.33;68.41;95283.66;5035357;28;20610;-75
2022/04/22 08:32:11;;;;;;;20.93;15.30;;;;;;;11.65;67.30;95276.97;5020052;28;20186;-79
2022/04/22 08:34:37;;;;;;;21.30;15.77;;;;;;;11.21;68.29;95299.69;5036979;28;20236;-79
2022/04/22 08:37:02;;;;;;;24.10;15.40;;;;;;;11.00;69.88;95285.84;5036186;28;20178;-79
2022/04/22 08:39:28;;;;;;;19.37;15.17;;;;;;;11.09;69.18;95279.00;5036875;28;20220;-78
2022/04/22 08:41:55;;;;;;;18.90;15.27;;;;;;;11.33;69.22;95273.97;5037112;28;20635;-78
2022/04/22 08:44:21;;;;;;;20.57;15.90;;;;;;;11.43;69.02;95288.88;5017203;28;20226;-76
2022/04/22 08:52:16;;;;;;;20.63;15.70;;;;;;;11.30;69.05;95266.63;5033961;28;20656;-71
2022/04/22 08:54:45;;;;;;;20.80;15.20;;;;;;;11.54;68.52;95274.66;5034198;28;20686;-73
2022/04/22 08:57:11;;;;;;;18.90;15.23;;;;;;;11.45;67.77;95266.56;5034111;28;20653;-73
2022/04/22 08:59:37;;;;;;;20.50;13.97;;;;;;;11.83;67.00;95267.72;5034448;28;20187;-71
2022/04/22 09:02:03;;;;;;;18.60;14.53;;;;;;;11.72;66.53;95265.38;5016161;28;20664;-73
2022/04/22 09:04:29;;;;;;;19.67;14.30;;;;;;;11.95;66.07;95272.66;5034556;28;20234;-72
2022/04/22 09:06:56;;;;;;;22.97;14.60;;;;;;;11.94;66.27;95258.72;5034493;28;20230;-70
2022/04/22 09:09:22;;;;;;;17.10;14.30;;;;;;;11.91;66.58;95263.75;5034119;28;20288;-70
2022/04/22 09:11:47;;;;;;;24.57;15.07;;;;;;;12.17;66.00;95259.91;5034214;28;20179;-70
2022/04/22 09:14:20;;;;;;;18.53;14.63;;;;;;;12.58;65.18;95251.69;5034324;28;20213;-70
2022/04/22 09:16:46;;;;;;;18.27;13.90;;;;;;;12.56;63.90;95248.56;5033928;28;20281;-73
2022/04/22 09:19:12;;;;;;;15.77;13.03;;;;;;;12.66;63.36;95253.72;5017010;28;20615;-70
2022/04/22 09:21:38;;;;;;;16.93;13.13;;;;;;;12.63;64.07;95249.81;5034131;28;20179;-69
2022/04/22 09:24:14;;;;;;;19.73;13.80;;;;;;;12.34;64.95;95244.53;5033839;28;20187;-69
2022/04/22 09:26:40;;;;;;;17.17;12.97;;;;;;;12.47;64.64;95240.50;5033840;28;20190;-69
2022/04/22 09:29:06;;;;;;;17.00;13.83;;;;;;;12.42;64.18;95249.22;5033757;28;20175;-69
2022/04/22 09:31:52;;;;;;;15.83;13.50;;;;;;;12.43;64.75;95234.19;5033483;28;20590;-69
2022/04/22 09:34:42;;;;;;;16.83;13.63;;;;;;;12.02;64.63;95239.78;5032730;28;21953;-69
2022/04/22 09:42:49;;;;;;;16.83;13.13;;;;;;;12.62;64.78;95231.69;5033954;28;20193;-70
2022/04/22 09:45:15;;;;;;;17.67;14.10;;;;;;;12.21;64.60;95244.38;5032995;28;21825;-70
2022/04/22 09:47:41;;;;;;;16.63;13.67;;;;;;;12.40;64.88;95230.28;5033787;28;20187;-68
2022/04/22 09:50:11;;;;;;;17.87;13.53;;;;;;;12.48;63.94;95234.19;5033942;28;20218;-69
2022/04/22 09:52:43;;;;;;;17.27;13.03;;;;;;;12.75;63.40;95237.09;5033445;28;20187;-70
2022/04/22 09:55:10;;;;;;;17.70;13.60;;;;;;;12.73;63.81;95225.25;5033164;28;20197;-69
2022/04/22 09:57:58;;;;;;;16.30;13.00;;;;;;;12.62;63.65;95227.22;5033706;28;20636;-68
2022/04/22 10:00:26;;;;;;;16.67;13.97;;;;;;;12.47;63.64;95227.34;5015754;28;20183;-69
2022/04/22 10:02:53;;;;;;;17.60;14.30;;;;;;;12.43;64.29;95224.47;5032056;28;20262;-69
2022/04/22 10:05:22;;;;;;;18.13;14.30;;;;;;;12.27;64.26;95227.50;5015694;28;20273;-68
2022/04/22 10:07:55;;;;;;;16.00;12.97;;;;;;;12.92;63.44;95226.13;5032696;28;20191;-69
2022/04/22 10:10:30;;;;;;;18.53;13.00;;;;;;;12.93;62.36;95226.91;5033597;28;20214;-69
2022/04/22 10:12:58;;;;;;;15.63;13.23;;;;;;;12.98;63.01;95227.66;5032799;28;20185;-69
2022/04/22 10:15:27;;;;;;;15.97;12.77;;;;;;;13.04;62.99;95225.75;5033460;28;20226;-68
2022/04/22 10:17:53;;;;;;;16.83;13.57;;;;;;;12.73;62.94;95233.16;5033129;28;20216;-69
2022/04/22 10:20:20;;;;;;;15.23;12.50;;;;;;;13.03;62.23;95222.34;5033191;28;20187;-70
2022/04/22 10:22:56;;;;;;;14.20;12.50;;;;;;;13.28;61.63;95216.00;5032803;28;20190;-70
2022/04/22 10:25:23;;;;;;;18.80;12.80;;;;;;;13.00;61.48;95219.47;5032719;28;20174;-69
2022/04/22 10:27:50;;;;;;;16.20;12.13;;;;;;;13.21;61.79;95226.09;5033014;28;20595;-70
2022/04/22 10:30:17;;;;;;;13.70;11.30;;;;;;;13.43;61.21;95215.06;5032483;28;20226;-69
2022/04/22 10:32:47;;;;;;;14.43;12.07;;;;;;;13.43;60.62;95210.56;5014912;28;20645;-71
2022/04/22 10:35:13;;;;;;;15.17;12.40;;;;;;;13.41;60.26;95210.06;5032515;28;20214;-69
2022/04/22 10:37:41;;;;;;;15.17;11.97;;;;;;;13.53;60.30;95215.72;5032692;28;20186;-70
2022/04/22 10:40:17;;;;;;;13.30;11.47;;;;;;;13.81;59.74;95205.31;5032499;28;20206;-69
2022/04/22 10:42:43;;;;;;;14.00;11.07;;;;;;;14.19;58.38;95206.06;5032766;28;20309;-69
2022/04/22 10:47:55;;;;;;;14.47;11.00;;;;;;;14.16;58.46;95213.47;5032337;28;20652;-70
2022/04/22 10:50:37;;;;;;;15.67;11.73;;;;;;;14.29;58.47;95205.91;5014437;28;20297;-70
2022/04/22 10:53:24;;;;;;;14.17;12.00;;;;;;;14.28;58.30;95202.47;5014862;28;20309;-70
2022/04/22 10:55:50;;;;;;;16.40;11.83;;;;;;;14.24;58.21;95201.50;5032268;28;20182;-70
2022/04/22 10:58:20;;;;;;;12.37;10.90;;;;;;;14.14;57.60;95205.09;5032961;28;20235;-70
2022/04/22 11:00:48;;;;;;;16.53;12.13;;;;;;;14.13;58.07;95205.38;5032296;28;20209;-71
2022/04/22 11:03:16;;;;;;;12.83;10.70;;;;;;;14.59;57.50;95186.97;5031935;28;20322;-70
2022/04/22 11:05:48;;;;;;;14.83;10.50;;;;;;;14.61;56.82;95194.59;5032483;28;20692;-70
2022/04/22 11:08:26;;;;;;;11.40;10.10;;;;;;;14.58;57.00;95195.97;5032507;28;20174;-70
2022/04/22 11:10:51;;;;;;;12.57;10.53;;;;;;;14.33;57.20;95183.94;5014472;28;20205;-71
2022/04/22 11:13:38;;;;;;;13.30;11.37;;;;;;;14.20;58.11;95195.25;5032135;28;20186;-70
2022/04/22 11:16:16;;;;;;;12.37;10.80;;;;;;;14.32;57.20;95192.91;5035772;28;20600;-70
2022/04/22 11:18:43;;;;;;;13.70;11.27;;;;;;;14.71;56.90;95204.97;5036372;28;20198;-69
2022/04/22 11:21:19;;;;;;;12.73;10.03;;;;;;;14.62;56.71;95183.75;5036951;28;20700;-71
2022/04/22 11:23:45;;;;;;;12.77;10.30;;;;;;;14.92;55.83;95196.41;5036422;28;20190;-70
2022/04/22 11:26:17;;;;;;;12.97;10.83;;;;;;;14.59;56.09;95194.91;5036517;28;20257;-69
2022/04/22 11:28:46;;;;;;;14.17;11.20;;;;;;;14.68;56.15;95193.13;5036968;28;20178;-69
2022/04/22 11:31:13;;;;;;;14.63;11.20;;;;;;;14.79;55.91;95205.06;5036130;28;20214;-70
2022/04/22 11:33:56;;;;;;;13.77;11.33;;;;;;;14.68;55.69;95192.34;5034268;28;20194;-70
2022/04/22 11:36:25;;;;;;;13.90;11.17;;;;;;;14.94;55.28;95188.16;5035714;28;20266;-70
2022/04/22 11:38:52;;;;;;;12.13;10.83;;;;;;;15.11;55.00;95185.72;5033156;28;20179;-70
2022/04/22 11:41:19;;;;;;;14.93;10.97;;;;;;;14.88;55.28;95182.22;5017902;28;20650;-70
2022/04/22 11:43:46;;;;;;;16.50;10.93;;;;;;;14.83;55.59;95200.78;5035815;28;20179;-71
2022/04/22 11:46:13;;;;;;;13.77;10.10;;;;;;;15.05;55.56;95186.91;5035378;28;20190;-73
2022/04/22 11:48:50;;;;;;;14.23;10.27;;;;;;;15.30;55.06;95175.06;5035261;28;20297;-71
2022/04/22 11:51:18;;;;;;;14.90;10.50;;;;;;;15.31;54.33;95171.34;5035036;28;20234;-71
2022/04/22 11:53:48;;;;;;;13.27;10.80;;;;;;;15.04;54.77;95176.66;5017808;28;20273;-69
2022/04/22 11:56:22;;;;;;;12.90;10.87;;;;;;;15.19;55.03;95177.13;5036150;28;20199;-70
2022/04/22 11:58:54;;;;;;;13.23;11.63;;;;;;;15.20;54.62;95185.84;5018044;28;20233;-70
2022/04/22 12:06:56;;;;;;;12.77;10.23;;;;;;;15.35;53.99;95177.59;5034600;28;20272;-70
2022/04/22 12:09:21;;;;;;;10.73;9.63;;;;;;;15.78;53.23;95170.09;5035186;28;20190;-69
2022/04/22 12:11:50;;;;;;;11.87;9.13;;;;;;;16.40;52.41;95165.72;5017594;28;20260;-70
2022/04/22 12:14:24;;;;;;;11.87;9.97;;;;;;;16.37;51.46;95173.47;5017568;28;20186;-69
2022/04/22 12:17:01;;;;;;;13.03;9.70;;;;;;;16.18;51.67;95179.72;5017952;28;20614;-70
2022/04/22 12:19:27;;;;;;;12.67;9.77;;;;;;;16.13;51.23;95171.13;5034947;28;20189;-71
2022/04/22 12:21:53;;;;;;;11.70;10.50;;;;;;;16.17;51.57;95172.09;5035144;28;20229;-71
2022/04/22 12:24:20;;;;;;;10.77;9.63;;;;;;;16.21;51.35;95175.72;5034542;28;20201;-71
2022/04/22 12:26:47;;;;;;;15.37;9.83;;;;;;;16.25;51.50;95178.53;5016478;28;20573;-72
2022/04/22 12:29:16;;;;;;;11.33;9.20;;;;;;;16.25;51.22;95168.72;5034075;28;20178;-71
2022/04/22 12:31:49;;;;;;;13.87;10.47;;;;;;;16.06;51.41;95166.28;5017074;28;20210;-71